createdAt,value
2018-07-22T00:00:59.623Z,16.20
2018-07-22T00:03:27.589Z,12.60
2018-07-22T00:05:55.123Z,14.60
2018-07-22T00:08:22.631Z,13.67
2018-07-22T00:10:50.993Z,16.60
2018-07-22T00:13:19.998Z,14.90
2018-07-22T00:15:48.027Z,16.97
2018-07-22T00:18:15.953Z,14.90
2018-07-22T00:20:43.996Z,15.10
2018-07-22T00:23:12.503Z,17.37
2018-07-22T00:25:39.997Z,18.00
2018-07-22T00:28:07.568Z,12.70
2018-07-22T00:30:35.360Z,16.87
2018-07-22T00:33:04.569Z,17.37
2018-07-22T00:35:32.122Z,17.47
2018-07-22T00:37:59.391Z,14.57
2018-07-22T00:40:26.638Z,26.43
2018-07-22T00:42:53.923Z,13.10
2018-07-22T00:45:21.202Z,13.97
2018-07-22T00:47:48.491Z,16.50
2018-07-22T00:50:15.786Z,15.17
2018-07-22T00:52:43.037Z,15.13
2018-07-22T00:55:10.286Z,21.00
2018-07-22T00:57:37.544Z,14.33
2018-07-22T01:00:04.898Z,22.13
2018-07-22T01:02:32.122Z,16.50
2018-07-22T01:04:59.409Z,15.60
2018-07-22T01:07:26.696Z,18.37
2018-07-22T01:09:53.980Z,20.63
2018-07-22T01:12:21.571Z,17.47
2018-07-22T01:14:48.942Z,14.47
2018-07-22T01:17:16.180Z,20.50
2018-07-22T01:19:43.482Z,16.80
2018-07-22T01:22:10.777Z,18.57
2018-07-22T01:24:38.083Z,14.33
2018-07-22T01:27:05.474Z,18.13
2018-07-22T01:29:32.778Z,15.10
2018-07-22T01:32:00.258Z,16.03
2018-07-22T01:34:27.674Z,17.93
2018-07-22T01:36:55.121Z,13.90
2018-07-22T01:39:22.436Z,22.87
2018-07-22T01:41:49.779Z,18.93
2018-07-22T01:44:17.101Z,15.10
2018-07-22T01:46:44.404Z,15.10
2018-07-22T01:49:12.705Z,16.23
2018-07-22T01:51:40.035Z,14.40
2018-07-22T01:54:07.338Z,16.80
2018-07-22T01:56:34.615Z,22.00
2018-07-22T01:59:02.077Z,16.23
2018-07-22T02:01:29.463Z,20.47
2018-07-22T02:03:56.830Z,15.10
2018-07-22T02:06:24.383Z,16.00
2018-07-22T02:08:52.707Z,15.50
2018-07-22T02:11:20.106Z,15.37
2018-07-22T02:13:47.423Z,18.80
2018-07-22T02:16:14.795Z,15.87
2018-07-22T02:18:42.118Z,14.87
2018-07-22T02:21:09.372Z,15.10
2018-07-22T02:23:36.747Z,19.77
2018-07-22T02:26:04.071Z,14.00
2018-07-22T02:28:31.355Z,15.20
2018-07-22T02:30:58.694Z,14.00
2018-07-22T02:33:26.032Z,14.10
2018-07-22T02:35:53.405Z,17.37
2018-07-22T02:38:20.745Z,17.63
2018-07-22T02:40:48.035Z,14.40
2018-07-22T02:43:15.395Z,13.23
2018-07-22T02:45:42.714Z,12.73
2018-07-22T02:48:09.952Z,14.50
2018-07-22T02:50:37.235Z,14.07
2018-07-22T02:53:04.562Z,19.50
2018-07-22T02:55:31.815Z,13.17
2018-07-22T02:57:59.379Z,13.33
2018-07-22T03:00:26.659Z,12.63
2018-07-22T03:02:53.997Z,12.40
2018-07-22T03:05:21.353Z,17.13
2018-07-22T03:07:48.687Z,22.40
2018-07-22T03:10:15.962Z,17.93
2018-07-22T03:12:43.299Z,11.80
2018-07-22T03:15:10.579Z,13.53
2018-07-22T03:17:37.923Z,12.57
2018-07-22T03:20:05.327Z,16.70
2018-07-22T03:22:32.632Z,13.13
2018-07-22T03:25:00.159Z,15.23
2018-07-22T03:27:27.521Z,12.33
2018-07-22T03:29:54.833Z,13.30
2018-07-22T03:32:22.172Z,11.70
2018-07-22T03:34:49.418Z,12.70
2018-07-22T03:37:16.765Z,12.43
2018-07-22T03:39:44.088Z,14.60
2018-07-22T03:42:11.383Z,13.33
2018-07-22T03:44:38.727Z,12.17
2018-07-22T03:47:06.071Z,11.87
2018-07-22T03:49:33.491Z,13.80
2018-07-22T03:52:01.065Z,16.00
2018-07-22T03:54:28.410Z,11.20
2018-07-22T03:56:55.734Z,12.73
2018-07-22T03:59:23.080Z,15.10
2018-07-22T04:01:51.415Z,11.20
2018-07-22T04:04:18.674Z,13.63
2018-07-22T04:06:45.947Z,12.40
2018-07-22T04:09:13.290Z,13.50
2018-07-22T04:11:40.627Z,16.20
2018-07-22T04:14:07.951Z,13.50
2018-07-22T04:16:35.204Z,11.67
2018-07-22T04:19:02.524Z,13.40
2018-07-22T04:21:29.896Z,12.50
2018-07-22T04:23:57.203Z,13.70
2018-07-22T04:26:24.578Z,15.23
2018-07-22T04:28:53.495Z,12.73
2018-07-22T04:31:21.290Z,15.13
2018-07-22T04:33:48.696Z,16.43
2018-07-22T04:36:16.194Z,15.50
2018-07-22T04:38:43.506Z,13.23
2018-07-22T04:41:10.844Z,13.77
2018-07-22T04:43:38.201Z,21.10
2018-07-22T04:46:05.650Z,15.53
2018-07-22T04:48:33.051Z,16.53
2018-07-22T04:51:00.381Z,14.90
2018-07-22T04:53:27.744Z,12.97
2018-07-22T04:55:55.091Z,12.63
2018-07-22T04:58:22.460Z,12.77
2018-07-22T05:00:50.013Z,10.87
2018-07-22T05:03:17.631Z,17.80
2018-07-22T06:28:13.278Z,10.10
2018-07-22T06:30:40.635Z,9.60
2018-07-22T06:33:07.942Z,10.47
2018-07-22T06:35:35.257Z,8.97
2018-07-22T06:38:02.531Z,9.30
2018-07-22T06:40:29.812Z,8.70
2018-07-22T06:42:57.158Z,13.43
2018-07-22T06:45:24.490Z,9.47
2018-07-22T06:47:51.732Z,10.30
2018-07-22T06:50:19.360Z,9.23
2018-07-22T06:52:46.674Z,14.83
2018-07-22T06:55:14.226Z,9.30
2018-07-22T06:57:41.899Z,10.50
2018-07-22T07:00:09.293Z,10.20
2018-07-22T07:02:36.692Z,9.50
2018-07-22T07:05:04.132Z,11.17
2018-07-22T07:07:32.563Z,12.83
2018-07-22T07:09:59.965Z,10.13
2018-07-22T07:12:27.360Z,10.17
2018-07-22T07:14:54.791Z,10.73
2018-07-22T07:17:22.138Z,14.80
2018-07-22T07:19:49.771Z,11.30
2018-07-22T07:22:17.323Z,10.63
2018-07-22T07:24:44.630Z,14.67
2018-07-22T07:27:11.973Z,12.67
2018-07-22T07:29:39.396Z,12.93
2018-07-22T07:32:06.954Z,17.03
2018-07-22T07:34:34.276Z,16.27
2018-07-22T07:37:01.784Z,15.30
2018-07-22T07:39:29.067Z,19.60
2018-07-22T07:41:56.435Z,16.10
2018-07-22T07:44:23.771Z,14.00
2018-07-22T07:46:51.114Z,15.57
2018-07-22T07:49:18.507Z,15.70
2018-07-22T07:51:45.849Z,15.30
2018-07-22T07:54:13.207Z,16.90
2018-07-22T07:56:40.538Z,15.77
2018-07-22T07:59:07.822Z,17.10
2018-07-22T08:01:35.187Z,17.20
2018-07-22T08:04:02.562Z,16.10
2018-07-22T08:06:29.851Z,17.37
2018-07-22T08:08:57.202Z,16.03
2018-07-22T08:11:24.590Z,18.87
2018-07-22T08:13:51.908Z,16.60
2018-07-22T08:16:19.205Z,15.80
2018-07-22T08:18:46.535Z,16.77
2018-07-22T08:21:13.902Z,13.90
2018-07-22T08:23:41.210Z,20.00
2018-07-22T08:26:08.825Z,17.30
2018-07-22T08:28:49.822Z,15.53
2018-07-22T08:31:17.151Z,17.33
2018-07-22T08:33:44.473Z,14.00
2018-07-22T08:36:12.007Z,17.43
2018-07-22T08:38:39.494Z,13.43
2018-07-22T08:41:06.986Z,14.67
2018-07-22T08:43:34.395Z,12.80
2018-07-22T08:46:01.798Z,16.67
2018-07-22T08:48:29.169Z,13.10
2018-07-22T08:50:56.475Z,13.23
2018-07-22T08:53:23.718Z,17.17
2018-07-22T08:55:51.109Z,13.40
2018-07-22T08:58:18.710Z,17.33
2018-07-22T09:00:46.106Z,14.67
2018-07-22T09:03:13.453Z,14.70
2018-07-22T09:05:40.815Z,13.27
2018-07-22T09:08:08.182Z,19.63
2018-07-22T09:10:35.641Z,15.77
2018-07-22T09:13:02.949Z,21.60
2018-07-22T09:15:31.303Z,14.70
2018-07-22T09:17:58.786Z,17.17
2018-07-22T09:20:26.274Z,13.70
2018-07-22T09:22:53.654Z,12.53
2018-07-22T09:25:20.984Z,14.07
2018-07-22T09:27:48.315Z,22.13
2018-07-22T09:30:15.683Z,15.70
2018-07-22T09:32:43.095Z,15.17
2018-07-22T09:35:10.521Z,14.77
2018-07-22T09:37:37.883Z,17.30
2018-07-22T09:40:05.306Z,15.17
2018-07-22T09:42:32.668Z,13.43
2018-07-22T09:45:00.000Z,15.60
2018-07-22T09:47:27.375Z,19.80
2018-07-22T09:49:54.693Z,15.03
2018-07-22T09:52:21.967Z,13.53
2018-07-22T09:54:49.338Z,16.23
2018-07-22T09:57:16.724Z,16.23
2018-07-22T09:59:44.043Z,12.87
2018-07-22T10:02:11.324Z,13.87
2018-07-22T10:04:38.643Z,18.07
2018-07-22T10:07:06.454Z,14.77
2018-07-22T10:09:33.770Z,14.80
2018-07-22T10:12:01.147Z,15.93
2018-07-22T10:14:28.580Z,13.20
2018-07-22T10:16:55.866Z,15.87
2018-07-22T10:19:23.210Z,19.63
2018-07-22T10:21:50.469Z,16.60
2018-07-22T10:24:17.735Z,15.03
2018-07-22T10:26:45.055Z,16.07
2018-07-22T10:29:12.369Z,19.03
2018-07-22T10:31:39.769Z,17.90
2018-07-22T10:34:07.094Z,15.70
2018-07-22T10:36:34.342Z,13.83
2018-07-22T10:39:01.665Z,15.13
2018-07-22T10:41:29.071Z,14.63
2018-07-22T10:43:57.342Z,15.10
2018-07-22T10:46:24.647Z,22.20
2018-07-22T10:48:51.889Z,15.07
2018-07-22T10:51:19.232Z,12.93
2018-07-22T10:53:46.563Z,13.77
2018-07-22T10:56:13.886Z,15.30
2018-07-22T10:58:41.170Z,15.43
2018-07-22T11:01:08.448Z,13.40
2018-07-22T11:03:35.918Z,14.37
2018-07-22T11:06:03.251Z,12.40
2018-07-22T11:08:30.615Z,11.87
2018-07-22T11:10:57.936Z,13.20
2018-07-22T11:13:25.278Z,15.67
2018-07-22T11:15:53.723Z,13.13
2018-07-22T11:18:21.183Z,14.53
2018-07-22T11:20:48.526Z,12.43
2018-07-22T11:23:15.878Z,13.27
2018-07-22T11:25:43.193Z,15.70
2018-07-22T11:28:10.505Z,13.93
2018-07-22T11:30:37.889Z,12.87
2018-07-22T11:33:05.263Z,13.37
2018-07-22T11:35:32.850Z,13.43
2018-07-22T11:38:00.200Z,14.60
2018-07-22T11:40:27.501Z,12.13
2018-07-22T11:42:54.771Z,10.87
2018-07-22T11:45:22.071Z,12.20
2018-07-22T11:47:49.336Z,17.80
2018-07-22T11:50:16.655Z,14.07
2018-07-22T11:52:44.014Z,12.93
2018-07-22T11:55:11.288Z,12.67
2018-07-22T11:57:38.554Z,13.70
2018-07-22T12:00:05.866Z,16.97
2018-07-22T12:02:33.081Z,14.80
2018-07-22T12:05:00.351Z,14.83
2018-07-22T12:07:27.678Z,11.20
2018-07-22T12:09:55.257Z,21.00
2018-07-22T12:12:22.603Z,11.50
2018-07-22T12:14:49.859Z,15.73
2018-07-22T12:17:17.206Z,12.97
2018-07-22T12:19:44.479Z,10.60
2018-07-22T12:22:11.774Z,11.33
2018-07-22T12:24:39.043Z,13.47
2018-07-22T12:27:06.326Z,12.57
2018-07-22T12:29:33.716Z,12.67
2018-07-22T12:32:01.864Z,11.30
2018-07-22T12:34:29.352Z,11.80
2018-07-22T12:36:56.523Z,11.87
2018-07-22T12:39:23.783Z,13.40
2018-07-22T12:41:51.112Z,10.73
2018-07-22T12:44:18.382Z,10.63
2018-07-22T12:46:45.646Z,10.00
2018-07-22T12:49:12.938Z,9.30
2018-07-22T12:51:40.183Z,7.63
2018-07-22T12:54:07.475Z,11.10
2018-07-22T12:56:34.842Z,9.87
2018-07-22T12:59:02.330Z,8.70
2018-07-22T13:01:29.675Z,8.83
2018-07-22T13:03:57.995Z,9.57
2018-07-22T13:06:25.411Z,8.77
2018-07-22T13:08:52.718Z,15.67
2018-07-22T13:11:22.366Z,9.50
2018-07-22T13:13:49.719Z,11.43
2018-07-22T13:16:17.170Z,12.23
2018-07-22T13:18:44.447Z,8.57
2018-07-22T13:21:11.815Z,7.60
2018-07-22T13:23:39.199Z,7.97
2018-07-22T13:26:06.567Z,8.43
2018-07-22T13:28:33.928Z,17.97
2018-07-22T13:31:01.276Z,7.67
2018-07-22T13:33:28.566Z,8.30
2018-07-22T13:35:56.101Z,6.73
2018-07-22T13:38:23.493Z,5.77
2018-07-22T13:40:50.749Z,9.83
2018-07-22T13:43:18.022Z,6.03
2018-07-22T13:45:45.421Z,8.70
2018-07-22T13:48:12.758Z,5.83
2018-07-22T13:50:40.107Z,8.60
2018-07-22T13:53:07.394Z,6.60
2018-07-22T13:55:34.778Z,13.43
2018-07-22T13:58:02.107Z,6.10
2018-07-22T14:00:29.459Z,5.87
2018-07-22T14:02:56.741Z,5.13
2018-07-22T14:05:24.023Z,12.13
2018-07-22T14:07:51.370Z,11.67
2018-07-22T14:10:18.651Z,5.30
2018-07-22T14:12:45.917Z,5.93
2018-07-22T14:15:13.164Z,5.87
2018-07-22T14:17:40.485Z,5.60
2018-07-22T14:20:07.792Z,5.30
2018-07-22T14:22:35.082Z,8.43
2018-07-22T14:25:02.501Z,5.37
2018-07-22T14:27:29.823Z,6.27
2018-07-22T14:29:57.210Z,5.03
2018-07-22T14:32:24.555Z,4.90
2018-07-22T14:34:51.818Z,5.00
2018-07-22T14:37:19.154Z,5.57
2018-07-22T14:39:46.459Z,6.43
2018-07-22T14:42:13.815Z,5.40
2018-07-22T14:44:41.199Z,5.40
2018-07-22T14:47:08.691Z,5.73
2018-07-22T14:49:36.296Z,5.23
2018-07-22T14:52:03.586Z,7.13
2018-07-22T14:54:31.106Z,5.70
2018-07-22T14:56:58.418Z,9.00
2018-07-22T14:59:25.690Z,5.87
2018-07-22T15:01:52.955Z,7.17
2018-07-22T15:04:20.299Z,19.07
2018-07-22T15:06:47.727Z,5.60
2018-07-22T15:09:15.023Z,9.37
2018-07-22T15:11:42.362Z,5.40
2018-07-22T15:14:09.679Z,5.77
2018-07-22T15:16:36.941Z,5.90
2018-07-22T15:19:05.342Z,5.40
2018-07-22T15:21:32.603Z,5.40
2018-07-22T15:23:59.866Z,5.00
2018-07-22T15:26:27.146Z,4.87
2018-07-22T15:28:54.401Z,4.93
2018-07-22T15:31:21.646Z,4.67
2018-07-22T15:33:48.976Z,4.93
2018-07-22T15:36:16.291Z,5.30
2018-07-22T15:38:43.578Z,5.67
2018-07-22T15:41:10.982Z,6.60
2018-07-22T15:43:38.259Z,4.90
2018-07-22T15:46:05.618Z,6.50
2018-07-22T15:48:32.959Z,6.80
2018-07-22T15:51:00.272Z,7.07
2018-07-22T15:53:27.594Z,5.33
2018-07-22T15:55:54.954Z,5.00
2018-07-22T15:58:22.210Z,5.10
2018-07-22T16:00:49.530Z,6.13
2018-07-22T16:03:16.865Z,5.60
2018-07-22T16:05:44.123Z,6.67
2018-07-22T16:08:11.425Z,8.30
2018-07-22T16:10:38.774Z,6.40
2018-07-22T16:13:06.164Z,12.73
2018-07-22T16:15:33.510Z,4.83
2018-07-22T16:18:01.002Z,4.30
2018-07-22T16:20:28.309Z,4.17
2018-07-22T16:22:55.588Z,4.30
2018-07-22T16:25:22.970Z,5.30
2018-07-22T16:27:50.217Z,6.60
2018-07-22T16:30:17.571Z,4.57
2018-07-22T16:32:44.869Z,3.60
2018-07-22T16:35:12.196Z,4.27
2018-07-22T16:37:39.488Z,5.73
2018-07-22T16:40:06.803Z,3.90
2018-07-22T16:42:34.123Z,4.73
2018-07-22T16:45:01.391Z,3.80
2018-07-22T16:47:28.806Z,4.50
2018-07-22T16:49:56.234Z,5.50
2018-07-22T16:52:23.920Z,6.17
2018-07-22T16:54:51.660Z,4.80
2018-07-22T16:57:18.907Z,5.40
2018-07-22T16:59:46.148Z,5.03
2018-07-22T17:02:13.407Z,4.20
2018-07-22T17:04:40.685Z,3.57
2018-07-22T17:07:07.967Z,5.00
2018-07-22T17:09:35.259Z,4.27
2018-07-22T17:12:02.538Z,5.63
2018-07-22T17:14:29.820Z,4.17
2018-07-22T17:16:57.083Z,5.20
2018-07-22T17:19:24.412Z,4.27
2018-07-22T17:21:51.659Z,4.10
2018-07-22T17:24:18.979Z,4.03
2018-07-22T17:26:46.263Z,5.57
2018-07-22T17:29:13.615Z,3.53
2018-07-22T17:31:40.859Z,6.50
2018-07-22T17:34:08.211Z,3.60
2018-07-22T17:36:35.574Z,4.17
2018-07-22T17:39:03.913Z,5.10
2018-07-22T17:41:31.286Z,4.80
2018-07-22T17:43:58.622Z,4.30
2018-07-22T17:46:26.107Z,4.17
2018-07-22T17:48:54.497Z,5.60
2018-07-22T17:51:21.766Z,4.03
2018-07-22T17:53:49.138Z,3.97
2018-07-22T17:56:16.378Z,9.20
2018-07-22T17:58:43.654Z,3.77
2018-07-22T18:01:10.914Z,4.70
2018-07-22T18:03:38.247Z,4.53
2018-07-22T18:06:05.650Z,4.90
2018-07-22T18:08:33.032Z,6.50
2018-07-22T18:11:00.394Z,6.30
2018-07-22T18:13:27.874Z,8.77
2018-07-22T18:15:56.040Z,4.43
2018-07-22T18:18:23.359Z,3.67
2018-07-22T18:20:50.749Z,4.37
2018-07-22T18:23:18.205Z,5.97
2018-07-22T18:25:45.993Z,4.53
2018-07-22T18:28:13.706Z,4.10
2018-07-22T18:30:40.999Z,3.77
2018-07-22T18:33:08.439Z,5.73
2018-07-22T18:35:35.715Z,3.40
2018-07-22T18:38:02.991Z,3.50
2018-07-22T18:40:30.233Z,3.53
2018-07-22T18:42:57.498Z,3.70
2018-07-22T18:45:24.779Z,5.60
2018-07-22T18:47:52.388Z,4.23
2018-07-22T18:50:19.695Z,4.20
2018-07-22T18:52:47.508Z,3.23
2018-07-22T18:55:14.758Z,3.00
2018-07-22T18:57:42.052Z,7.07
2018-07-22T19:00:09.433Z,3.00
2018-07-22T19:02:36.663Z,3.53
2018-07-22T19:05:03.951Z,3.80
2018-07-22T19:07:31.198Z,5.70
2018-07-22T19:09:58.584Z,3.07
2018-07-22T19:12:25.880Z,4.17
2018-07-22T19:14:53.282Z,3.63
2018-07-22T19:17:20.618Z,3.60
2018-07-22T19:19:48.015Z,3.20
2018-07-22T19:22:15.853Z,5.33
2018-07-22T19:24:43.098Z,5.90
2018-07-22T19:27:10.455Z,6.87
2018-07-22T19:29:37.820Z,3.60
2018-07-22T19:32:05.397Z,3.60
2018-07-22T19:34:32.664Z,2.83
2018-07-22T19:36:59.967Z,5.50
2018-07-22T19:39:27.337Z,3.90
2018-07-22T19:41:54.655Z,3.20
2018-07-22T19:44:21.888Z,3.30
2018-07-22T19:46:49.157Z,3.37
2018-07-22T19:49:16.506Z,4.27
2018-07-22T19:51:43.872Z,4.00
2018-07-22T19:54:11.226Z,3.97
2018-07-22T19:56:38.836Z,7.70
2018-07-22T19:59:06.132Z,7.43
2018-07-22T20:01:39.200Z,3.07
2018-07-22T20:04:06.511Z,3.30
2018-07-22T20:06:33.779Z,3.90
2018-07-22T20:09:01.141Z,4.00
2018-07-22T20:11:28.391Z,7.90
2018-07-22T20:13:55.694Z,4.20
2018-07-22T20:16:23.015Z,5.63
2018-07-22T20:18:50.327Z,6.60
2018-07-22T20:21:17.654Z,5.23
2018-07-22T20:23:44.990Z,8.70
2018-07-22T20:26:12.291Z,3.63
2018-07-22T20:28:39.548Z,3.87
2018-07-22T20:31:06.802Z,6.10
2018-07-22T20:33:34.119Z,4.00
2018-07-22T20:36:01.442Z,5.57
2018-07-22T20:38:28.664Z,3.37
2018-07-22T20:40:56.974Z,2.90
2018-07-22T20:43:24.270Z,3.63
2018-07-22T20:45:51.571Z,3.30
2018-07-22T20:48:18.814Z,5.60
2018-07-22T20:50:46.083Z,3.50
2018-07-22T20:53:13.355Z,6.93
2018-07-22T20:55:40.580Z,5.60
2018-07-22T20:58:07.807Z,4.13
2018-07-22T21:00:35.057Z,4.13
2018-07-22T21:03:02.307Z,3.40
2018-07-22T21:05:29.563Z,5.70
2018-07-22T21:07:56.819Z,3.50
2018-07-22T21:10:24.076Z,3.30
2018-07-22T21:12:57.066Z,5.70
2018-07-22T21:15:24.391Z,3.17
2018-07-22T21:17:52.073Z,3.40
2018-07-22T21:20:20.254Z,3.30
2018-07-22T21:22:47.566Z,4.07
2018-07-22T21:25:15.509Z,3.90
2018-07-22T21:27:42.747Z,3.50
2018-07-22T21:30:11.046Z,5.80
2018-07-22T21:32:38.311Z,3.60
2018-07-22T21:35:05.660Z,4.20
2018-07-22T21:37:33.032Z,7.67
2018-07-22T21:40:00.416Z,3.87
2018-07-22T21:42:27.862Z,3.60
2018-07-22T21:44:55.157Z,2.83
2018-07-22T21:47:22.549Z,3.47
2018-07-22T21:49:49.903Z,3.33
2018-07-22T21:52:17.241Z,3.37
2018-07-22T21:54:44.515Z,4.47
2018-07-22T21:57:11.768Z,4.00
2018-07-22T21:59:39.050Z,3.80
2018-07-22T22:02:06.442Z,4.50
2018-07-22T22:04:33.868Z,4.93
2018-07-22T22:07:01.310Z,2.97
2018-07-22T22:09:28.611Z,16.93
2018-07-22T22:11:55.874Z,3.53
2018-07-22T22:14:23.294Z,3.00
2018-07-22T22:16:50.620Z,5.57
2018-07-22T22:19:17.999Z,4.00
2018-07-22T22:21:45.353Z,9.53
2018-07-22T22:24:12.692Z,5.07
2018-07-22T22:26:39.990Z,7.17
2018-07-22T22:29:07.342Z,4.70
2018-07-22T22:31:36.743Z,4.40
2018-07-22T22:34:04.127Z,6.80
2018-07-22T22:36:31.411Z,4.10
2018-07-22T22:38:58.747Z,3.40
2018-07-22T22:41:26.016Z,4.30
2018-07-22T22:43:53.273Z,3.77
2018-07-22T22:46:20.583Z,3.77
2018-07-22T22:48:47.927Z,5.27
2018-07-22T22:51:15.257Z,3.90
2018-07-22T22:53:42.691Z,3.80
2018-07-22T22:56:10.050Z,3.83
2018-07-22T22:59:46.834Z,3.97
2018-07-22T23:02:15.179Z,3.97
2018-07-22T23:04:42.857Z,3.73
2018-07-22T23:07:10.560Z,4.13
2018-07-22T23:09:38.646Z,6.97
2018-07-22T23:12:06.081Z,3.57
2018-07-22T23:14:35.258Z,4.33
2018-07-22T23:17:03.635Z,4.83
2018-07-22T23:19:31.570Z,4.63
2018-07-22T23:21:59.488Z,5.60
2018-07-22T23:24:27.292Z,4.70
2018-07-22T23:26:56.336Z,4.40
2018-07-22T23:29:24.453Z,4.20
2018-07-22T23:31:52.657Z,6.27
2018-07-22T23:34:20.240Z,4.60
2018-07-22T23:36:47.923Z,4.50
2018-07-22T23:39:16.006Z,4.47
2018-07-22T23:41:44.813Z,5.00
2018-07-22T23:44:13.808Z,7.20
2018-07-22T23:46:42.828Z,4.50
2018-07-22T23:49:11.038Z,4.50
2018-07-22T23:51:39.143Z,8.47
2018-07-22T23:54:07.849Z,4.30
2018-07-22T23:56:37.304Z,4.80
2018-07-22T23:59:05.411Z,4.77
